Metar z połowy godziny Komunikat METAR ze strony awiacja.imgw.pl Metar Mil EPSN METAR EPSN 261200Z 28010KT 5000 BR OVC005 00/00 Q1007 RMK 003 100 8/8=